Dagmar Aaen — DIXX — position and weather

sailwx.info

Track history (hours):
 
Tides and Currents Weather Stations Pressure Air Temp Water Temp Dewpoint Dewpoint Depression Visibility Wind Speed Wind Dir Waves Ship Positions

Dagmar Aaen

Last reported at 2020-Jul-31 15:04 UTC. Time now 2020-Aug-07 10:19 UTC.
Position N 56°19' E 008°01'.

Length 24 m; beam 4.8 m; draft 2.5 m.

Type: Sailing vessel. MMSI: 211249810.

Date/timePositionNaut miles runAvg speedWind from/ knotsBaromVisibWave heightAir tempDewpointWater temp
2020-Jul-31 15:04N 56°19' E 008°01'17 5.7
2020-Jul-31 12:00N 56°36' E 008°02'9 4.1
2020-Jul-31 09:52N 56°42' E 008°13'  
2020-Jul-28 09:14N 57°04' E 009°48'5 0.3
2020-Jul-27 17:31N 57°03' E 009°56'1 2.7
2020-Jul-27 17:01N 57°04' E 009°58'2 4.7
2020-Jul-27 16:30N 57°05' E 010°02'3 6.5
2020-Jul-27 16:00N 57°02' E 010°06'3 6.5
2020-Jul-27 15:30N 57°00' E 010°10'3 6.1
2020-Jul-27 14:58N 56°59' E 010°16'3 5.9
2020-Jul-27 14:27N 56°58' E 010°21'32 4.7
2020-Jul-27 07:36N 57°30' E 010°33'1 0.0
2020-Jul-26 02:30N 57°30' E 010°30'16 0.9
2020-Jul-25 10:00N 57°24' E 010°57'7 2.9
2020-Jul-25 07:30N 57°19' E 011°08'0 0.0
2020-Jul-25 06:00N 57°19' E 011°08'0 0.0
2020-Jul-25 05:30N 57°19' E 011°08'0 0.0
2020-Jul-25 04:30N 57°19' E 011°08'0 0.0
2020-Jul-25 04:00N 57°19' E 011°08'0 0.0
2020-Jul-25 02:00N 57°19' E 011°08'0 0.0
2020-Jul-24 20:30N 57°19' E 011°08'72 2.1
2020-Jul-23 10:30N 56°09' E 010°46'  
Track history (hours):
 
Tides and Currents Weather Stations Pressure Air Temp Water Temp Dewpoint Dewpoint Depression Visibility Wind Speed Wind Dir Waves Ship Positions

Dagmar Aaen

Last reported at 2020-Jul-31 15:04 UTC. Time now 2020-Aug-07 10:19 UTC.
Position N 56°19' E 008°01'.

Length 24 m; beam 4.8 m; draft 2.5 m.

Type: Sailing vessel. MMSI: 211249810.

Date/timePositionNaut miles runAvg speedWind from/ knotsBaromVisibWave heightAir tempDewpointWater temp
2020-Jul-31 15:04N 56°19' E 008°01'17 5.7
2020-Jul-31 12:00N 56°36' E 008°02'9 4.1
2020-Jul-31 09:52N 56°42' E 008°13'  
2020-Jul-28 09:14N 57°04' E 009°48'5 0.3
2020-Jul-27 17:31N 57°03' E 009°56'1 2.7
2020-Jul-27 17:01N 57°04' E 009°58'2 4.7
2020-Jul-27 16:30N 57°05' E 010°02'3 6.5
2020-Jul-27 16:00N 57°02' E 010°06'3 6.5
2020-Jul-27 15:30N 57°00' E 010°10'3 6.1
2020-Jul-27 14:58N 56°59' E 010°16'3 5.9
2020-Jul-27 14:27N 56°58' E 010°21'32 4.7
2020-Jul-27 07:36N 57°30' E 010°33'1 0.0
2020-Jul-26 02:30N 57°30' E 010°30'16 0.9
2020-Jul-25 10:00N 57°24' E 010°57'7 2.9
2020-Jul-25 07:30N 57°19' E 011°08'0 0.0
2020-Jul-25 06:00N 57°19' E 011°08'0 0.0
2020-Jul-25 05:30N 57°19' E 011°08'0 0.0
2020-Jul-25 04:30N 57°19' E 011°08'0 0.0
2020-Jul-25 04:00N 57°19' E 011°08'0 0.0
2020-Jul-25 02:00N 57°19' E 011°08'0 0.0
2020-Jul-24 20:30N 57°19' E 011°08'72 2.1
2020-Jul-23 10:30N 56°09' E 010°46'  

Dump ship's entire track history